createdAt,value
2019-01-30T00:01:26.949Z,1.06
2019-01-30T00:03:56.103Z,1.15
2019-01-30T00:06:25.255Z,1.18
2019-01-30T00:08:54.367Z,1.15
2019-01-30T00:11:23.513Z,1.15
2019-01-30T00:13:52.686Z,1.15
2019-01-30T00:16:21.770Z,1.19
2019-01-30T00:18:50.836Z,1.11
2019-01-30T00:21:19.950Z,1.18
2019-01-30T00:23:48.953Z,1.04
2019-01-30T00:26:17.962Z,1.11
2019-01-30T00:28:46.939Z,1.07
2019-01-30T00:31:16.016Z,1.07
2019-01-30T00:33:45.156Z,1.08
2019-01-30T00:36:14.347Z,1.11
2019-01-30T00:38:43.400Z,1.03
2019-01-30T00:41:12.592Z,1.02
2019-01-30T00:43:41.598Z,1.02
2019-01-30T00:46:10.759Z,1.01
2019-01-30T00:48:39.892Z,0.92
2019-01-30T00:51:08.974Z,0.99
2019-01-30T00:53:37.987Z,0.99
2019-01-30T00:56:07.145Z,0.86
2019-01-30T00:58:36.151Z,0.86
2019-01-30T01:01:07.183Z,0.91
2019-01-30T01:03:36.602Z,0.81
2019-01-30T01:06:05.880Z,0.81
2019-01-30T01:08:35.013Z,0.83
2019-01-30T01:11:04.195Z,0.78
2019-01-30T01:13:33.250Z,0.76
2019-01-30T01:16:02.446Z,0.64
2019-01-30T01:18:31.577Z,0.68
2019-01-30T01:21:01.028Z,0.68
2019-01-30T01:23:30.116Z,0.61
2019-01-30T01:25:59.469Z,0.68
2019-01-30T01:28:28.559Z,0.63
2019-01-30T01:30:57.663Z,0.60
2019-01-30T01:33:28.487Z,0.63
2019-01-30T01:35:57.690Z,0.67
2019-01-30T01:38:26.773Z,0.56
2019-01-30T01:40:55.825Z,0.56
2019-01-30T01:43:24.867Z,0.65
2019-01-30T01:45:53.881Z,0.53
2019-01-30T01:48:22.920Z,0.55
2019-01-30T01:50:52.159Z,0.55
2019-01-30T01:53:21.199Z,0.54
2019-01-30T01:55:50.319Z,0.54
2019-01-30T01:58:19.415Z,0.54
2019-01-30T02:00:48.573Z,0.56
2019-01-30T02:03:17.701Z,0.56
2019-01-30T02:05:46.877Z,0.52
2019-01-30T02:08:15.926Z,0.52
2019-01-30T02:10:45.084Z,0.45
2019-01-30T02:13:14.108Z,0.45
2019-01-30T02:15:43.277Z,0.56
2019-01-30T02:18:12.339Z,0.44
2019-01-30T02:20:41.342Z,0.44
2019-01-30T02:23:10.425Z,0.54
2019-01-30T02:25:39.503Z,0.41
2019-01-30T02:28:08.596Z,0.45
2019-01-30T02:30:47.260Z,0.45
2019-01-30T02:33:08.558Z,0.46
2019-01-30T02:35:37.736Z,0.52
2019-01-30T02:38:09.005Z,0.52
2019-01-30T02:40:38.027Z,0.44
2019-01-30T02:43:07.200Z,0.44
2019-01-30T02:45:36.319Z,0.40
2019-01-30T02:48:05.497Z,0.47
2019-01-30T02:50:35.193Z,0.47
2019-01-30T02:53:04.275Z,0.39
2019-01-30T02:55:33.383Z,0.47
2019-01-30T02:58:02.496Z,0.48
2019-01-30T03:00:35.021Z,0.47
2019-01-30T03:03:04.191Z,0.47
2019-01-30T03:05:33.522Z,0.43
2019-01-30T03:08:02.684Z,0.46
2019-01-30T03:10:31.765Z,0.46
2019-01-30T03:13:00.941Z,0.46
2019-01-30T03:15:30.089Z,0.47
2019-01-30T03:17:59.173Z,0.48
2019-01-30T03:20:28.451Z,0.48
2019-01-30T03:22:57.557Z,0.49
2019-01-30T03:25:26.779Z,0.54
2019-01-30T03:27:55.922Z,0.54
2019-01-30T03:30:27.640Z,0.45
2019-01-30T03:32:56.801Z,0.43
2019-01-30T03:35:25.946Z,0.43
2019-01-30T03:37:55.087Z,0.49
2019-01-30T03:40:24.536Z,0.54
2019-01-30T03:42:53.706Z,0.57
2019-01-30T03:45:24.048Z,0.61
2019-01-30T03:47:53.640Z,0.61
2019-01-30T03:50:22.684Z,0.61
2019-01-30T03:52:55.275Z,0.68
2019-01-30T03:55:24.354Z,0.68
2019-01-30T03:57:53.376Z,0.64
2019-01-30T04:00:24.338Z,0.64
2019-01-30T04:02:53.784Z,0.58
2019-01-30T04:05:23.044Z,0.58
2019-01-30T04:07:52.654Z,0.62
2019-01-30T04:10:22.957Z,0.51
2019-01-30T04:12:54.042Z,0.51
2019-01-30T04:15:23.396Z,0.58
2019-01-30T04:17:52.552Z,0.52
2019-01-30T04:20:22.044Z,0.56
2019-01-30T04:22:51.080Z,0.56
2019-01-30T04:25:20.166Z,0.50
2019-01-30T04:27:49.261Z,0.50
2019-01-30T04:30:20.420Z,0.58
2019-01-30T04:32:52.496Z,0.60
2019-01-30T04:35:22.893Z,0.60
2019-01-30T04:37:51.898Z,0.38
2019-01-30T04:40:21.817Z,0.38
2019-01-30T04:42:51.241Z,0.51
2019-01-30T04:45:24.847Z,0.46
2019-01-30T04:47:54.079Z,0.48
2019-01-30T04:50:24.107Z,0.57
2019-01-30T04:52:53.520Z,0.55
2019-01-30T04:55:26.290Z,0.45
2019-01-30T04:57:58.275Z,0.55
2019-01-30T05:00:27.856Z,0.48
2019-01-30T05:02:57.675Z,0.54
2019-01-30T05:05:26.793Z,0.47
2019-01-30T05:07:55.850Z,0.50
2019-01-30T05:10:25.890Z,0.50
2019-01-30T05:12:55.027Z,0.53
2019-01-30T05:15:23.982Z,0.53
2019-01-30T05:17:53.083Z,0.54
2019-01-30T05:20:22.989Z,0.59
2019-01-30T05:22:53.325Z,0.52
2019-01-30T05:25:22.312Z,0.56
2019-01-30T05:27:51.402Z,0.56
2019-01-30T05:30:24.068Z,0.46
2019-01-30T05:32:53.427Z,0.52
2019-01-30T05:35:22.464Z,0.51
2019-01-30T05:37:51.772Z,0.54
2019-01-30T05:40:20.967Z,0.49
2019-01-30T05:42:49.997Z,0.49
2019-01-30T05:45:19.246Z,0.45
2019-01-30T05:47:48.397Z,0.45
2019-01-30T05:50:17.563Z,0.54
2019-01-30T05:52:46.715Z,0.52
2019-01-30T05:55:16.074Z,0.52
2019-01-30T05:57:45.157Z,0.42
2019-01-30T06:00:17.290Z,0.37
2019-01-30T06:02:46.298Z,0.37
2019-01-30T06:05:15.604Z,0.49
2019-01-30T06:07:44.740Z,0.49
2019-01-30T06:10:13.973Z,0.32
2019-01-30T06:12:43.042Z,0.32
2019-01-30T06:15:12.723Z,0.49
2019-01-30T06:17:41.818Z,0.49
2019-01-30T06:20:14.371Z,0.29
2019-01-30T06:22:45.812Z,0.27
2019-01-30T06:25:17.396Z,0.27
2019-01-30T06:27:46.988Z,0.40
2019-01-30T06:30:17.430Z,0.30
2019-01-30T06:32:46.637Z,0.22
2019-01-30T06:35:17.283Z,0.32
2019-01-30T06:37:47.650Z,0.24
2019-01-30T06:40:19.445Z,0.28
2019-01-30T06:42:50.622Z,0.29
2019-01-30T06:45:21.191Z,0.29
2019-01-30T06:47:50.698Z,0.26
2019-01-30T06:50:19.845Z,0.20
2019-01-30T06:52:48.940Z,0.18
2019-01-30T06:55:18.018Z,0.18
2019-01-30T06:57:47.054Z,0.22
2019-01-30T07:00:19.405Z,0.28
2019-01-30T07:02:48.859Z,0.27
2019-01-30T07:05:20.544Z,0.27
2019-01-30T07:07:52.052Z,0.21
2019-01-30T07:10:23.123Z,0.36
2019-01-30T07:12:52.379Z,0.22
2019-01-30T07:15:21.614Z,0.25
2019-01-30T07:17:52.762Z,0.25
2019-01-30T07:20:21.917Z,0.27
2019-01-30T07:22:51.190Z,0.31
2019-01-30T07:25:21.274Z,0.31
2019-01-30T07:27:50.469Z,0.18
2019-01-30T07:30:21.814Z,0.18
2019-01-30T07:32:50.849Z,0.17
2019-01-30T07:35:20.374Z,0.24
2019-01-30T07:37:49.918Z,0.24
2019-01-30T07:40:19.372Z,0.17
2019-01-30T07:42:48.508Z,0.17
2019-01-30T07:45:19.186Z,0.21
2019-01-30T07:47:48.268Z,0.26
2019-01-30T07:50:17.776Z,0.26
2019-01-30T07:52:46.955Z,0.25
2019-01-30T07:55:16.911Z,0.23
2019-01-30T07:57:46.087Z,0.31
2019-01-30T08:00:20.797Z,0.28
2019-01-30T08:02:53.306Z,0.34
2019-01-30T08:05:22.894Z,0.29
2019-01-30T08:07:52.623Z,0.29
2019-01-30T08:10:22.211Z,0.39
2019-01-30T08:12:55.417Z,0.37
2019-01-30T08:15:27.613Z,0.42
2019-01-30T08:17:59.061Z,0.48
2019-01-30T08:20:28.450Z,0.72
2019-01-30T08:22:58.052Z,0.72
2019-01-30T08:25:27.690Z,0.47
2019-01-30T08:27:58.249Z,0.47
2019-01-30T08:30:46.698Z,0.58
2019-01-30T08:33:30.310Z,0.68
2019-01-30T08:36:07.701Z,0.68
2019-01-30T08:38:38.517Z,0.77
2019-01-30T08:41:34.523Z,0.73
2019-01-30T08:44:10.607Z,0.75
2019-01-30T08:46:56.471Z,0.75
2019-01-30T08:49:41.654Z,0.87
2019-01-30T08:52:40.879Z,0.83
2019-01-30T08:55:50.115Z,1.07
2019-01-30T08:58:36.132Z,1.12
2019-01-30T09:01:12.696Z,1.12
2019-01-30T09:04:32.890Z,1.04
2019-01-30T09:07:12.206Z,1.18
2019-01-30T09:10:29.363Z,1.18
2019-01-30T09:13:29.694Z,1.25
2019-01-30T09:15:53.228Z,1.26
2019-01-30T09:18:28.216Z,1.26
2019-01-30T09:20:58.866Z,1.33
2019-01-30T09:23:31.118Z,1.39
2019-01-30T09:26:00.262Z,1.36
2019-01-30T09:28:39.695Z,1.42
2019-01-30T09:31:17.019Z,1.50
2019-01-30T09:33:50.467Z,1.40
2019-01-30T09:36:24.016Z,1.57
2019-01-30T09:41:45.108Z,1.52
2019-01-30T09:44:25.203Z,1.46
2019-01-30T09:46:56.632Z,1.46
2019-01-30T09:49:34.806Z,1.58
2019-01-30T09:52:07.161Z,1.66
2019-01-30T09:54:42.820Z,1.70
2019-01-30T10:07:14.681Z,1.98
2019-01-30T10:10:58.895Z,2.07
2019-01-30T10:13:27.155Z,2.10
2019-01-30T10:16:30.842Z,2.15
2019-01-30T10:22:30.601Z,2.56
2019-01-30T10:25:13.179Z,2.46
2019-01-30T10:28:16.316Z,2.52
2019-01-30T10:34:08.885Z,2.84
2019-01-30T10:36:41.381Z,3.26
2019-01-30T10:39:13.387Z,3.26
2019-01-30T10:41:50.859Z,2.76
2019-01-30T10:44:29.231Z,3.07
2019-01-30T10:47:08.980Z,3.07
2019-01-30T10:50:31.996Z,2.60
2019-01-30T10:53:07.867Z,2.60
2019-01-30T10:59:00.109Z,3.06
2019-01-30T11:04:49.199Z,2.82
2019-01-30T11:07:34.843Z,2.64
2019-01-30T11:11:07.468Z,2.64
2019-01-30T11:13:58.791Z,3.06
2019-01-30T11:16:46.589Z,2.89
2019-01-30T11:19:23.147Z,3.24
2019-01-30T11:22:12.346Z,3.32
2019-01-30T11:25:19.895Z,3.40
2019-01-30T11:27:52.736Z,3.40
2019-01-30T11:30:36.580Z,3.59
2019-01-30T11:33:09.463Z,3.31
2019-01-30T11:35:48.929Z,3.31
2019-01-30T11:38:13.586Z,3.29
2019-01-30T11:40:44.249Z,3.27
2019-01-30T11:43:15.742Z,3.15
2019-01-30T11:45:46.900Z,3.28
2019-01-30T11:48:16.131Z,3.23
2019-01-30T11:50:46.880Z,3.27
2019-01-30T11:53:16.316Z,3.27
2019-01-30T11:55:45.819Z,3.53
2019-01-30T11:58:15.132Z,3.53
2019-01-30T12:00:48.860Z,3.29
2019-01-30T12:03:22.144Z,3.52
2019-01-30T12:05:51.869Z,3.58
2019-01-30T12:08:21.306Z,3.58
2019-01-30T12:10:51.839Z,3.20
2019-01-30T12:13:21.124Z,3.20
2019-01-30T12:15:50.586Z,2.80
2019-01-30T12:18:28.684Z,3.04
2019-01-30T12:21:02.526Z,2.97
2019-01-30T12:23:31.783Z,2.97
2019-01-30T12:26:03.444Z,2.99
2019-01-30T12:28:37.318Z,3.05
2019-01-30T12:31:08.207Z,3.08
2019-01-30T12:33:37.464Z,3.08
2019-01-30T12:36:08.354Z,3.08
2019-01-30T12:39:02.241Z,3.14
2019-01-30T12:41:32.004Z,2.75
2019-01-30T12:44:10.270Z,2.86
2019-01-30T12:46:47.171Z,2.86
2019-01-30T12:49:23.227Z,2.88
2019-01-30T12:51:51.882Z,2.97
2019-01-30T12:54:34.049Z,2.82
2019-01-30T12:57:01.588Z,2.52
2019-01-30T12:59:32.231Z,2.45
2019-01-30T13:02:01.459Z,2.45
2019-01-30T13:04:38.590Z,2.87
2019-01-30T13:07:02.988Z,2.76
2019-01-30T13:09:33.390Z,2.63
2019-01-30T13:12:02.595Z,2.85
2019-01-30T13:14:31.614Z,2.81
2019-01-30T13:17:01.605Z,2.81
2019-01-30T13:19:30.683Z,3.07
2019-01-30T13:22:00.183Z,3.07
2019-01-30T13:24:30.751Z,3.11
2019-01-30T13:26:59.931Z,2.77
2019-01-30T13:29:32.220Z,2.86
2019-01-30T13:32:02.248Z,2.86
2019-01-30T13:34:33.328Z,3.01
2019-01-30T13:37:03.073Z,2.74
2019-01-30T13:39:32.181Z,2.81
2019-01-30T13:42:02.652Z,2.82
2019-01-30T13:44:33.602Z,2.82
2019-01-30T13:47:03.355Z,2.97
2019-01-30T13:49:32.739Z,2.91
2019-01-30T13:52:01.965Z,2.74
2019-01-30T13:54:31.070Z,2.78
2019-01-30T13:57:00.117Z,2.85
2019-01-30T13:59:30.616Z,2.74
2019-01-30T14:04:27.837Z,2.68
2019-01-30T14:06:56.921Z,2.65
2019-01-30T14:09:27.643Z,2.59
2019-01-30T14:11:57.110Z,2.59
2019-01-30T14:14:34.155Z,2.55
2019-01-30T14:17:03.207Z,2.74
2019-01-30T14:19:32.740Z,2.77
2019-01-30T14:22:02.055Z,2.77
2019-01-30T14:24:31.493Z,2.58
2019-01-30T14:27:02.010Z,2.54
2019-01-30T14:29:31.046Z,2.62
2019-01-30T14:32:01.671Z,2.77
2019-01-30T14:34:32.337Z,2.77
2019-01-30T14:37:01.546Z,2.55
2019-01-30T14:39:30.716Z,2.55
2019-01-30T14:42:00.088Z,2.49
2019-01-30T14:44:29.195Z,2.44
2019-01-30T14:46:58.260Z,2.54
2019-01-30T14:49:27.351Z,2.47
2019-01-30T14:51:56.445Z,2.34
2019-01-30T14:54:25.453Z,2.48
2019-01-30T14:56:54.422Z,2.40
2019-01-30T14:59:23.456Z,2.56
2019-01-30T15:02:19.520Z,2.38
2019-01-30T15:04:48.719Z,2.38
2019-01-30T15:07:28.152Z,2.42
2019-01-30T15:09:48.577Z,2.55
2019-01-30T15:12:24.847Z,2.51
2019-01-30T15:14:52.989Z,2.34
2019-01-30T15:17:22.088Z,2.17
2019-01-30T15:19:51.110Z,2.18
2019-01-30T15:22:21.680Z,2.19
2019-01-30T15:24:50.752Z,2.24
2019-01-30T15:27:22.506Z,2.00
2019-01-30T15:29:50.612Z,2.28
2019-01-30T15:32:21.479Z,2.11
2019-01-30T15:34:50.629Z,1.96
2019-01-30T15:37:19.644Z,1.96
2019-01-30T15:39:48.841Z,1.79
2019-01-30T15:42:19.432Z,1.79
2019-01-30T15:44:48.870Z,1.61
2019-01-30T15:47:17.943Z,1.77
2019-01-30T15:49:47.142Z,1.58
2019-01-30T15:52:16.242Z,1.58
2019-01-30T15:54:45.442Z,1.56
2019-01-30T15:57:14.718Z,1.40
2019-01-30T15:59:43.938Z,1.28
2019-01-30T16:02:13.317Z,1.17
2019-01-30T16:04:54.675Z,1.26
2019-01-30T16:07:24.069Z,1.15
2019-01-30T16:09:53.903Z,1.36
2019-01-30T16:12:32.802Z,1.28
2019-01-30T16:15:03.299Z,1.21
2019-01-30T16:17:44.521Z,1.36
2019-01-30T16:20:14.005Z,1.36
2019-01-30T16:22:50.772Z,1.16
2019-01-30T16:25:19.925Z,1.18
2019-01-30T16:27:49.110Z,1.08
2019-01-30T16:30:22.199Z,1.05
2019-01-30T16:32:51.450Z,1.25
2019-01-30T16:35:23.406Z,1.29
2019-01-30T16:37:52.530Z,1.44
2019-01-30T16:40:21.812Z,1.27
2019-01-30T16:42:50.908Z,1.38
2019-01-30T16:45:21.297Z,1.22
2019-01-30T16:47:50.450Z,1.10
2019-01-30T16:50:19.606Z,1.26
2019-01-30T16:52:48.810Z,1.33
2019-01-30T16:55:19.838Z,1.30
2019-01-30T16:57:49.026Z,1.04
2019-01-30T17:00:29.473Z,1.32
2019-01-30T17:02:58.600Z,1.32
2019-01-30T17:05:29.832Z,0.97
2019-01-30T17:07:58.938Z,1.36
2019-01-30T17:10:28.507Z,1.04
2019-01-30T17:12:59.918Z,1.42
2019-01-30T17:15:32.040Z,1.27
2019-01-30T17:18:01.096Z,1.27
2019-01-30T17:20:32.258Z,1.39
2019-01-30T17:23:01.492Z,1.19
2019-01-30T17:25:30.803Z,0.99
2019-01-30T17:27:59.907Z,1.39
2019-01-30T17:30:35.072Z,0.94
2019-01-30T17:33:04.482Z,1.02
2019-01-30T17:35:35.845Z,0.89
2019-01-30T17:38:05.128Z,1.08
2019-01-30T17:40:36.365Z,1.08
2019-01-30T17:43:05.999Z,1.15
2019-01-30T17:45:35.159Z,1.27
2019-01-30T17:48:04.940Z,1.33
2019-01-30T17:50:34.019Z,1.33
2019-01-30T17:53:03.158Z,1.34
2019-01-30T17:55:33.462Z,1.35
2019-01-30T17:58:03.868Z,1.35
2019-01-30T18:00:47.724Z,1.50
2019-01-30T18:03:16.990Z,1.50
2019-01-30T18:05:46.276Z,1.27
2019-01-30T18:08:15.668Z,1.25
2019-01-30T18:10:44.867Z,1.32
2019-01-30T18:13:14.033Z,1.15
2019-01-30T18:15:43.567Z,1.15
2019-01-30T18:18:13.859Z,1.28
2019-01-30T18:20:43.063Z,1.35
2019-01-30T18:23:14.581Z,1.35
2019-01-30T18:25:44.092Z,1.25
2019-01-30T18:28:14.319Z,1.26
2019-01-30T18:30:46.326Z,1.28
2019-01-30T18:33:17.933Z,1.10
2019-01-30T18:35:49.377Z,1.13
2019-01-30T18:38:20.025Z,1.21
2019-01-30T18:40:49.243Z,1.12
2019-01-30T18:43:18.439Z,1.07
2019-01-30T18:45:47.542Z,1.28
2019-01-30T18:48:16.763Z,1.13
2019-01-30T18:50:46.025Z,1.07
2019-01-30T18:53:15.231Z,1.14
2019-01-30T18:55:44.391Z,1.27
2019-01-30T18:58:13.963Z,1.29
2019-01-30T19:00:44.329Z,1.31
2019-01-30T19:03:20.295Z,1.31
2019-01-30T19:05:51.050Z,1.37
2019-01-30T19:08:20.159Z,1.31
2019-01-30T19:10:49.365Z,1.18
2019-01-30T19:13:18.503Z,1.18
2019-01-30T19:15:47.671Z,1.17
2019-01-30T19:18:17.397Z,1.09
2019-01-30T19:20:48.414Z,1.14
2019-01-30T19:23:17.651Z,1.14
2019-01-30T19:25:46.806Z,1.16
2019-01-30T19:28:16.475Z,1.16
2019-01-30T19:30:46.000Z,1.09
2019-01-30T19:33:15.231Z,1.09
2019-01-30T19:35:47.038Z,1.11
2019-01-30T19:38:16.476Z,1.02
2019-01-30T19:40:45.999Z,0.98
2019-01-30T19:43:15.198Z,1.09
2019-01-30T19:45:44.606Z,1.09
2019-01-30T19:48:14.315Z,1.02
2019-01-30T19:50:43.568Z,1.01
2019-01-30T19:53:13.232Z,1.01
2019-01-30T19:55:42.521Z,1.08
2019-01-30T19:58:12.988Z,1.04
2019-01-30T20:00:47.690Z,1.04
2019-01-30T20:03:22.154Z,0.98
2019-01-30T20:05:51.458Z,0.93
2019-01-30T20:08:21.878Z,0.93
2019-01-30T20:10:51.140Z,0.89
2019-01-30T20:13:20.251Z,0.89
2019-01-30T20:15:51.658Z,0.74
2019-01-30T20:18:20.782Z,0.96
2019-01-30T20:20:49.875Z,0.82
2019-01-30T20:23:19.570Z,1.03
2019-01-30T20:25:48.737Z,0.92
2019-01-30T20:28:17.839Z,0.92
2019-01-30T20:30:46.838Z,0.92
2019-01-30T20:33:15.867Z,0.84
2019-01-30T20:35:44.997Z,0.84
2019-01-30T20:38:15.284Z,0.63
2019-01-30T20:40:44.720Z,0.70
2019-01-30T20:43:13.914Z,0.70
2019-01-30T20:45:43.049Z,0.61
2019-01-30T20:48:12.226Z,0.66
2019-01-30T20:50:41.379Z,0.77
2019-01-30T20:53:10.523Z,0.77
2019-01-30T20:55:39.868Z,0.82
2019-01-30T20:58:09.016Z,0.88
2019-01-30T21:00:39.035Z,0.99
2019-01-30T21:03:08.937Z,0.99
2019-01-30T21:05:38.124Z,1.07
2019-01-30T21:08:08.936Z,0.99
2019-01-30T21:10:42.171Z,0.85
2019-01-30T21:13:12.118Z,0.85
2019-01-30T21:15:41.719Z,1.00
2019-01-30T21:18:13.112Z,0.90
2019-01-30T21:20:44.006Z,0.97
2019-01-30T21:23:13.081Z,0.83
2019-01-30T21:25:42.157Z,0.97
2019-01-30T21:28:11.291Z,0.84
2019-01-30T21:30:40.539Z,0.77
2019-01-30T21:33:09.674Z,0.83
2019-01-30T21:35:38.851Z,0.90
2019-01-30T21:38:08.091Z,1.00
2019-01-30T21:40:37.295Z,0.91
2019-01-30T21:43:06.566Z,0.80
2019-01-30T21:45:36.926Z,0.94
2019-01-30T21:48:06.533Z,0.89
2019-01-30T21:50:35.614Z,0.83
2019-01-30T21:53:04.769Z,0.83
2019-01-30T21:55:33.987Z,0.87
2019-01-30T21:58:03.064Z,0.87
2019-01-30T22:00:32.184Z,0.92
2019-01-30T22:03:03.560Z,0.78
2019-01-30T22:05:32.700Z,0.93
2019-01-30T22:08:01.771Z,0.93
2019-01-30T22:10:31.030Z,0.89
2019-01-30T22:13:00.234Z,0.81
2019-01-30T22:15:29.306Z,0.81
2019-01-30T22:17:58.447Z,0.19
2019-01-30T22:20:27.861Z,0.88
2019-01-30T22:22:57.046Z,0.88
2019-01-30T22:25:27.133Z,0.85
2019-01-30T22:27:56.440Z,0.87
2019-01-30T22:30:27.679Z,0.86
2019-01-30T22:32:56.823Z,0.78
2019-01-30T22:35:26.048Z,0.81
2019-01-30T22:37:56.391Z,0.88
2019-01-30T22:40:27.095Z,0.86
2019-01-30T22:42:56.268Z,0.78
2019-01-30T22:45:25.537Z,0.78
2019-01-30T22:47:54.729Z,0.80
2019-01-30T22:50:27.066Z,0.78
2019-01-30T22:52:56.123Z,0.78
2019-01-30T22:55:25.360Z,0.59
2019-01-30T22:57:58.823Z,0.63
2019-01-30T23:00:53.176Z,0.63
2019-01-30T23:03:26.431Z,0.55
2019-01-30T23:06:49.520Z,0.55
2019-01-30T23:10:02.691Z,0.61
2019-01-30T23:13:01.680Z,0.53
2019-01-30T23:15:39.278Z,0.53
2019-01-30T23:18:23.992Z,0.64
2019-01-30T23:20:57.032Z,0.64
2019-01-30T23:23:54.700Z,0.66
2019-01-30T23:26:34.289Z,0.66
2019-01-30T23:29:35.924Z,0.72
2019-01-30T23:32:33.896Z,0.66
2019-01-30T23:35:33.644Z,0.60
2019-01-30T23:38:44.174Z,0.54
2019-01-30T23:41:28.463Z,0.54
2019-01-30T23:44:57.017Z,0.55
2019-01-30T23:48:16.816Z,0.49
2019-01-30T23:50:55.684Z,0.39
2019-01-30T23:53:51.831Z,0.39
2019-01-30T23:56:53.783Z,0.37
2019-01-30T23:59:51.431Z,0.46
